sensor_id;sensor_type;location;lat;lon;timestamp;temperature;humidity
4425;DHT22;2225;53.568;13.266;2022-07-10T00:01:30;19.10;75.00
4425;DHT22;2225;53.568;13.266;2022-07-10T00:03:57;19.10;75.00
4425;DHT22;2225;53.568;13.266;2022-07-10T00:06:24;19.10;75.00
4425;DHT22;2225;53.568;13.266;2022-07-10T00:08:51;19.10;75.20
4425;DHT22;2225;53.568;13.266;2022-07-10T00:11:18;19.10;75.00
4425;DHT22;2225;53.568;13.266;2022-07-10T00:13:45;19.10;75.20
4425;DHT22;2225;53.568;13.266;2022-07-10T00:16:12;19.10;75.00
4425;DHT22;2225;53.568;13.266;2022-07-10T00:18:39;19.10;75.00
4425;DHT22;2225;53.568;13.266;2022-07-10T00:21:07;19.10;75.10
4425;DHT22;2225;53.568;13.266;2022-07-10T00:23:34;19.10;75.30
4425;DHT22;2225;53.568;13.266;2022-07-10T00:26:01;19.10;75.30
4425;DHT22;2225;53.568;13.266;2022-07-10T00:28:28;19.00;75.40
4425;DHT22;2225;53.568;13.266;2022-07-10T00:30:54;19.10;75.40
4425;DHT22;2225;53.568;13.266;2022-07-10T00:33:21;19.00;75.50
4425;DHT22;2225;53.568;13.266;2022-07-10T00:35:48;19.00;75.70
4425;DHT22;2225;53.568;13.266;2022-07-10T00:38:15;19.00;75.70
4425;DHT22;2225;53.568;13.266;2022-07-10T00:40:42;19.00;75.80
4425;DHT22;2225;53.568;13.266;2022-07-10T00:43:09;19.00;76.10
4425;DHT22;2225;53.568;13.266;2022-07-10T00:45:36;18.90;76.30
4425;DHT22;2225;53.568;13.266;2022-07-10T00:48:04;18.90;76.70
4425;DHT22;2225;53.568;13.266;2022-07-10T00:50:31;18.90;76.70
4425;DHT22;2225;53.568;13.266;2022-07-10T00:53:00;18.90;76.80
4425;DHT22;2225;53.568;13.266;2022-07-10T00:55:28;18.80;76.90
4425;DHT22;2225;53.568;13.266;2022-07-10T00:57:55;18.80;77.30
4425;DHT22;2225;53.568;13.266;2022-07-10T01:00:23;18.80;77.80
4425;DHT22;2225;53.568;13.266;2022-07-10T01:02:52;18.80;78.80
4425;DHT22;2225;53.568;13.266;2022-07-10T01:05:19;18.80;79.30
4425;DHT22;2225;53.568;13.266;2022-07-10T01:07:45;18.80;80.40
4425;DHT22;2225;53.568;13.266;2022-07-10T01:10:12;18.70;81.00
4425;DHT22;2225;53.568;13.266;2022-07-10T01:12:39;18.80;81.80
4425;DHT22;2225;53.568;13.266;2022-07-10T01:15:07;18.70;81.70
4425;DHT22;2225;53.568;13.266;2022-07-10T01:17:35;18.60;82.30
4425;DHT22;2225;53.568;13.266;2022-07-10T01:20:06;18.50;82.50
4425;DHT22;2225;53.568;13.266;2022-07-10T01:22:35;18.50;82.60
4425;DHT22;2225;53.568;13.266;2022-07-10T01:25:03;18.50;82.80
4425;DHT22;2225;53.568;13.266;2022-07-10T01:27:32;18.40;83.40
4425;DHT22;2225;53.568;13.266;2022-07-10T01:29:59;18.40;83.60
4425;DHT22;2225;53.568;13.266;2022-07-10T01:32:26;18.30;83.90
4425;DHT22;2225;53.568;13.266;2022-07-10T01:34:53;18.20;84.60
4425;DHT22;2225;53.568;13.266;2022-07-10T01:37:20;18.20;84.70
4425;DHT22;2225;53.568;13.266;2022-07-10T01:39:47;18.20;84.90
4425;DHT22;2225;53.568;13.266;2022-07-10T01:42:14;18.10;85.40
4425;DHT22;2225;53.568;13.266;2022-07-10T01:44:41;18.10;85.60
4425;DHT22;2225;53.568;13.266;2022-07-10T01:47:08;18.00;86.10
4425;DHT22;2225;53.568;13.266;2022-07-10T01:49:35;17.90;86.50
4425;DHT22;2225;53.568;13.266;2022-07-10T01:52:04;17.90;87.20
4425;DHT22;2225;53.568;13.266;2022-07-10T01:54:31;17.80;87.80
4425;DHT22;2225;53.568;13.266;2022-07-10T01:56:58;17.80;88.40
4425;DHT22;2225;53.568;13.266;2022-07-10T01:59:25;17.70;88.90
4425;DHT22;2225;53.568;13.266;2022-07-10T02:01:52;17.70;89.10
4425;DHT22;2225;53.568;13.266;2022-07-10T02:04:19;17.50;89.50
4425;DHT22;2225;53.568;13.266;2022-07-10T02:07:05;17.60;89.30
4425;DHT22;2225;53.568;13.266;2022-07-10T02:09:31;17.60;89.50
4425;DHT22;2225;53.568;13.266;2022-07-10T02:11:58;17.60;90.00
4425;DHT22;2225;53.568;13.266;2022-07-10T02:14:25;17.60;90.10
4425;DHT22;2225;53.568;13.266;2022-07-10T02:16:52;17.50;90.20
4425;DHT22;2225;53.568;13.266;2022-07-10T02:19:19;17.50;90.20
4425;DHT22;2225;53.568;13.266;2022-07-10T02:21:46;17.50;90.20
4425;DHT22;2225;53.568;13.266;2022-07-10T02:24:13;17.40;90.20
4425;DHT22;2225;53.568;13.266;2022-07-10T02:26:40;17.40;90.20
4425;DHT22;2225;53.568;13.266;2022-07-10T02:29:07;17.40;90.30
4425;DHT22;2225;53.568;13.266;2022-07-10T02:31:34;17.40;90.30
4425;DHT22;2225;53.568;13.266;2022-07-10T02:34:10;17.40;90.60
4425;DHT22;2225;53.568;13.266;2022-07-10T02:36:38;17.40;90.70
4425;DHT22;2225;53.568;13.266;2022-07-10T02:39:07;17.30;90.90
4425;DHT22;2225;53.568;13.266;2022-07-10T02:41:34;17.30;91.20
4425;DHT22;2225;53.568;13.266;2022-07-10T02:44:03;17.20;91.30
4425;DHT22;2225;53.568;13.266;2022-07-10T02:46:30;17.20;91.40
4425;DHT22;2225;53.568;13.266;2022-07-10T02:48:57;17.20;91.60
4425;DHT22;2225;53.568;13.266;2022-07-10T02:51:24;17.10;91.60
4425;DHT22;2225;53.568;13.266;2022-07-10T02:53:51;17.10;91.60
4425;DHT22;2225;53.568;13.266;2022-07-10T02:56:18;17.10;91.60
4425;DHT22;2225;53.568;13.266;2022-07-10T02:58:45;17.10;91.70
4425;DHT22;2225;53.568;13.266;2022-07-10T03:01:12;17.10;91.70
4425;DHT22;2225;53.568;13.266;2022-07-10T03:03:39;17.10;91.60
4425;DHT22;2225;53.568;13.266;2022-07-10T03:06:06;17.10;91.70
4425;DHT22;2225;53.568;13.266;2022-07-10T03:08:32;17.00;91.70
4425;DHT22;2225;53.568;13.266;2022-07-10T03:10:59;17.00;91.60
4425;DHT22;2225;53.568;13.266;2022-07-10T03:13:26;16.90;91.60
4425;DHT22;2225;53.568;13.266;2022-07-10T03:15:54;16.90;91.70
4425;DHT22;2225;53.568;13.266;2022-07-10T03:18:21;16.90;91.90
4425;DHT22;2225;53.568;13.266;2022-07-10T03:20:48;16.90;91.80
4425;DHT22;2225;53.568;13.266;2022-07-10T03:23:15;16.80;92.00
4425;DHT22;2225;53.568;13.266;2022-07-10T03:25:42;16.80;92.00
4425;DHT22;2225;53.568;13.266;2022-07-10T03:28:09;16.80;92.30
4425;DHT22;2225;53.568;13.266;2022-07-10T03:30:36;16.80;92.30
4425;DHT22;2225;53.568;13.266;2022-07-10T03:33:03;16.80;92.30
4425;DHT22;2225;53.568;13.266;2022-07-10T03:35:30;16.70;92.40
4425;DHT22;2225;53.568;13.266;2022-07-10T03:37:59;16.70;92.40
4425;DHT22;2225;53.568;13.266;2022-07-10T03:40:27;16.60;92.40
4425;DHT22;2225;53.568;13.266;2022-07-10T03:42:54;16.60;92.50
4425;DHT22;2225;53.568;13.266;2022-07-10T03:45:21;16.60;92.40
4425;DHT22;2225;53.568;13.266;2022-07-10T03:47:48;16.60;92.50
4425;DHT22;2225;53.568;13.266;2022-07-10T03:50:15;16.60;92.40
4425;DHT22;2225;53.568;13.266;2022-07-10T03:52:42;16.60;92.40
4425;DHT22;2225;53.568;13.266;2022-07-10T03:55:10;16.60;92.60
4425;DHT22;2225;53.568;13.266;2022-07-10T03:57:38;16.60;92.70
4425;DHT22;2225;53.568;13.266;2022-07-10T04:00:21;16.50;92.70
4425;DHT22;2225;53.568;13.266;2022-07-10T04:02:55;16.60;92.60
4425;DHT22;2225;53.568;13.266;2022-07-10T04:05:23;16.60;92.70
4425;DHT22;2225;53.568;13.266;2022-07-10T04:07:50;16.60;92.60
4425;DHT22;2225;53.568;13.266;2022-07-10T04:10:17;16.60;92.60
4425;DHT22;2225;53.568;13.266;2022-07-10T04:12:44;16.60;92.60
4425;DHT22;2225;53.568;13.266;2022-07-10T04:15:11;16.60;92.60
4425;DHT22;2225;53.568;13.266;2022-07-10T04:17:39;16.60;92.50
4425;DHT22;2225;53.568;13.266;2022-07-10T04:20:06;16.60;92.50
4425;DHT22;2225;53.568;13.266;2022-07-10T04:22:33;16.70;92.40
4425;DHT22;2225;53.568;13.266;2022-07-10T04:25:00;16.70;92.40
4425;DHT22;2225;53.568;13.266;2022-07-10T04:27:28;16.70;92.40
4425;DHT22;2225;53.568;13.266;2022-07-10T04:29:55;16.70;92.70
4425;DHT22;2225;53.568;13.266;2022-07-10T04:32:22;16.70;92.30
4425;DHT22;2225;53.568;13.266;2022-07-10T04:34:49;16.70;92.40
4425;DHT22;2225;53.568;13.266;2022-07-10T04:37:16;16.70;92.40
4425;DHT22;2225;53.568;13.266;2022-07-10T04:39:43;16.70;92.30
4425;DHT22;2225;53.568;13.266;2022-07-10T04:42:10;16.70;92.30
4425;DHT22;2225;53.568;13.266;2022-07-10T04:44:37;16.70;92.50
4425;DHT22;2225;53.568;13.266;2022-07-10T04:47:04;16.70;92.40
4425;DHT22;2225;53.568;13.266;2022-07-10T04:49:32;16.70;92.50
4425;DHT22;2225;53.568;13.266;2022-07-10T04:52:00;16.80;93.00
4425;DHT22;2225;53.568;13.266;2022-07-10T04:54:27;16.80;93.00
4425;DHT22;2225;53.568;13.266;2022-07-10T04:56:54;16.90;93.00
4425;DHT22;2225;53.568;13.266;2022-07-10T04:59:21;17.00;93.10
4425;DHT22;2225;53.568;13.266;2022-07-10T05:01:48;17.10;92.90
4425;DHT22;2225;53.568;13.266;2022-07-10T05:04:15;17.20;92.80
4425;DHT22;2225;53.568;13.266;2022-07-10T05:06:42;17.20;92.60
4425;DHT22;2225;53.568;13.266;2022-07-10T05:09:09;17.30;92.50
4425;DHT22;2225;53.568;13.266;2022-07-10T05:11:36;17.40;92.40
4425;DHT22;2225;53.568;13.266;2022-07-10T05:14:03;17.40;92.50
4425;DHT22;2225;53.568;13.266;2022-07-10T05:16:30;17.50;92.40
4425;DHT22;2225;53.568;13.266;2022-07-10T05:18:57;17.60;92.30
4425;DHT22;2225;53.568;13.266;2022-07-10T05:21:24;17.70;91.90
4425;DHT22;2225;53.568;13.266;2022-07-10T05:23:51;17.80;91.60
4425;DHT22;2225;53.568;13.266;2022-07-10T05:26:19;17.90;91.40
4425;DHT22;2225;53.568;13.266;2022-07-10T05:28:46;18.00;91.30
4425;DHT22;2225;53.568;13.266;2022-07-10T05:31:13;18.00;91.00
4425;DHT22;2225;53.568;13.266;2022-07-10T05:33:40;18.10;90.90
4425;DHT22;2225;53.568;13.266;2022-07-10T05:36:08;18.10;90.80
4425;DHT22;2225;53.568;13.266;2022-07-10T05:38:35;18.20;90.90
4425;DHT22;2225;53.568;13.266;2022-07-10T05:41:03;18.30;90.90
4425;DHT22;2225;53.568;13.266;2022-07-10T05:43:30;18.30;90.60
4425;DHT22;2225;53.568;13.266;2022-07-10T05:45:56;18.40;90.40
4425;DHT22;2225;53.568;13.266;2022-07-10T05:48:24;18.50;89.90
4425;DHT22;2225;53.568;13.266;2022-07-10T05:50:52;18.50;89.40
4425;DHT22;2225;53.568;13.266;2022-07-10T05:53:19;18.60;88.90
4425;DHT22;2225;53.568;13.266;2022-07-10T05:55:49;18.60;88.40
4425;DHT22;2225;53.568;13.266;2022-07-10T05:58:16;18.70;88.20
4425;DHT22;2225;53.568;13.266;2022-07-10T06:00:43;18.70;87.90
4425;DHT22;2225;53.568;13.266;2022-07-10T06:03:12;18.80;87.90
4425;DHT22;2225;53.568;13.266;2022-07-10T06:05:39;18.90;88.00
4425;DHT22;2225;53.568;13.266;2022-07-10T06:08:06;18.90;87.10
4425;DHT22;2225;53.568;13.266;2022-07-10T06:10:33;19.00;86.90
4425;DHT22;2225;53.568;13.266;2022-07-10T06:13:00;19.10;86.10
4425;DHT22;2225;53.568;13.266;2022-07-10T06:15:27;19.10;86.40
4425;DHT22;2225;53.568;13.266;2022-07-10T06:17:57;19.20;86.30
4425;DHT22;2225;53.568;13.266;2022-07-10T06:20:25;19.30;85.50
4425;DHT22;2225;53.568;13.266;2022-07-10T06:22:52;19.40;84.50
4425;DHT22;2225;53.568;13.266;2022-07-10T06:25:19;19.50;83.90
4425;DHT22;2225;53.568;13.266;2022-07-10T06:27:46;19.60;83.30
4425;DHT22;2225;53.568;13.266;2022-07-10T06:30:13;19.60;83.30
4425;DHT22;2225;53.568;13.266;2022-07-10T06:32:40;19.70;82.50
4425;DHT22;2225;53.568;13.266;2022-07-10T06:35:08;19.70;81.90
4425;DHT22;2225;53.568;13.266;2022-07-10T06:37:35;19.70;81.50
4425;DHT22;2225;53.568;13.266;2022-07-10T06:40:03;19.70;80.90
4425;DHT22;2225;53.568;13.266;2022-07-10T06:42:30;19.70;81.10
4425;DHT22;2225;53.568;13.266;2022-07-10T06:44:59;19.70;81.30
4425;DHT22;2225;53.568;13.266;2022-07-10T06:47:26;19.70;80.30
4425;DHT22;2225;53.568;13.266;2022-07-10T06:50:12;19.60;80.00
4425;DHT22;2225;53.568;13.266;2022-07-10T06:52:39;19.60;80.40
4425;DHT22;2225;53.568;13.266;2022-07-10T06:55:06;19.60;80.20
4425;DHT22;2225;53.568;13.266;2022-07-10T06:57:34;19.60;80.50
4425;DHT22;2225;53.568;13.266;2022-07-10T07:00:02;19.70;80.60
4425;DHT22;2225;53.568;13.266;2022-07-10T07:02:29;19.70;80.30
4425;DHT22;2225;53.568;13.266;2022-07-10T07:04:56;19.90;79.30
4425;DHT22;2225;53.568;13.266;2022-07-10T07:07:23;19.90;79.40
4425;DHT22;2225;53.568;13.266;2022-07-10T07:09:52;20.10;78.50
4425;DHT22;2225;53.568;13.266;2022-07-10T07:12:19;20.20;77.80
4425;DHT22;2225;53.568;13.266;2022-07-10T07:14:46;20.30;76.30
4425;DHT22;2225;53.568;13.266;2022-07-10T07:17:14;20.40;77.70
4425;DHT22;2225;53.568;13.266;2022-07-10T07:19:48;20.50;75.90
4425;DHT22;2225;53.568;13.266;2022-07-10T07:22:34;20.50;75.70
4425;DHT22;2225;53.568;13.266;2022-07-10T07:25:20;20.60;75.40
4425;DHT22;2225;53.568;13.266;2022-07-10T07:27:47;20.60;74.40
4425;DHT22;2225;53.568;13.266;2022-07-10T07:30:15;20.70;73.40
4425;DHT22;2225;53.568;13.266;2022-07-10T07:32:43;20.70;72.80
4425;DHT22;2225;53.568;13.266;2022-07-10T07:35:13;20.80;71.20
4425;DHT22;2225;53.568;13.266;2022-07-10T07:37:42;20.70;71.40
4425;DHT22;2225;53.568;13.266;2022-07-10T07:40:19;20.80;71.50
4425;DHT22;2225;53.568;13.266;2022-07-10T07:42:53;20.80;72.30
4425;DHT22;2225;53.568;13.266;2022-07-10T07:45:22;20.90;72.00
4425;DHT22;2225;53.568;13.266;2022-07-10T07:47:51;20.90;71.80
4425;DHT22;2225;53.568;13.266;2022-07-10T07:50:21;21.00;71.50
4425;DHT22;2225;53.568;13.266;2022-07-10T07:52:49;21.10;71.80
4425;DHT22;2225;53.568;13.266;2022-07-10T07:55:18;21.20;71.90
4425;DHT22;2225;53.568;13.266;2022-07-10T07:57:46;21.30;70.70
4425;DHT22;2225;53.568;13.266;2022-07-10T08:00:15;21.30;69.90
4425;DHT22;2225;53.568;13.266;2022-07-10T08:02:45;21.40;70.40
4425;DHT22;2225;53.568;13.266;2022-07-10T08:05:12;21.50;70.40
4425;DHT22;2225;53.568;13.266;2022-07-10T08:07:44;21.50;70.20
4425;DHT22;2225;53.568;13.266;2022-07-10T08:10:15;21.60;69.20
4425;DHT22;2225;53.568;13.266;2022-07-10T08:12:45;21.60;70.00
4425;DHT22;2225;53.568;13.266;2022-07-10T08:15:15;21.70;67.70
4425;DHT22;2225;53.568;13.266;2022-07-10T08:17:44;21.60;66.60
4425;DHT22;2225;53.568;13.266;2022-07-10T08:20:14;21.70;66.80
4425;DHT22;2225;53.568;13.266;2022-07-10T08:22:46;21.70;67.50
4425;DHT22;2225;53.568;13.266;2022-07-10T08:25:21;21.70;67.60
4425;DHT22;2225;53.568;13.266;2022-07-10T08:27:49;21.70;67.70
4425;DHT22;2225;53.568;13.266;2022-07-10T08:30:16;21.80;67.60
4425;DHT22;2225;53.568;13.266;2022-07-10T08:32:44;21.90;67.50
4425;DHT22;2225;53.568;13.266;2022-07-10T08:35:11;22.00;67.50
4425;DHT22;2225;53.568;13.266;2022-07-10T08:37:44;22.00;67.10
4425;DHT22;2225;53.568;13.266;2022-07-10T08:40:16;22.10;65.90
4425;DHT22;2225;53.568;13.266;2022-07-10T08:42:45;22.10;65.10
4425;DHT22;2225;53.568;13.266;2022-07-10T08:45:13;22.10;65.70
4425;DHT22;2225;53.568;13.266;2022-07-10T08:47:41;22.10;65.90
4425;DHT22;2225;53.568;13.266;2022-07-10T08:50:37;22.10;66.80
4425;DHT22;2225;53.568;13.266;2022-07-10T08:53:13;22.20;66.10
4425;DHT22;2225;53.568;13.266;2022-07-10T08:55:43;22.30;66.30
4425;DHT22;2225;53.568;13.266;2022-07-10T08:58:12;22.30;65.50
4425;DHT22;2225;53.568;13.266;2022-07-10T09:00:39;22.40;65.80
4425;DHT22;2225;53.568;13.266;2022-07-10T09:03:07;22.50;65.40
4425;DHT22;2225;53.568;13.266;2022-07-10T09:05:35;22.60;65.60
4425;DHT22;2225;53.568;13.266;2022-07-10T09:08:02;22.60;65.60
4425;DHT22;2225;53.568;13.266;2022-07-10T09:10:29;22.70;65.40
4425;DHT22;2225;53.568;13.266;2022-07-10T09:12:58;22.70;64.10
4425;DHT22;2225;53.568;13.266;2022-07-10T09:15:28;22.80;63.80
4425;DHT22;2225;53.568;13.266;2022-07-10T09:18:03;22.80;65.20
4425;DHT22;2225;53.568;13.266;2022-07-10T09:20:35;22.90;63.10
4425;DHT22;2225;53.568;13.266;2022-07-10T09:23:21;22.90;61.70
4425;DHT22;2225;53.568;13.266;2022-07-10T09:25:51;23.00;61.50
4425;DHT22;2225;53.568;13.266;2022-07-10T09:28:22;23.00;62.60
4425;DHT22;2225;53.568;13.266;2022-07-10T09:30:50;23.10;62.10
4425;DHT22;2225;53.568;13.266;2022-07-10T09:33:22;23.10;62.90
4425;DHT22;2225;53.568;13.266;2022-07-10T09:41:24;23.30;61.50
4425;DHT22;2225;53.568;13.266;2022-07-10T09:43:58;23.30;61.30
4425;DHT22;2225;53.568;13.266;2022-07-10T09:46:38;23.30;62.10
4425;DHT22;2225;53.568;13.266;2022-07-10T09:49:10;23.30;61.40
4425;DHT22;2225;53.568;13.266;2022-07-10T09:51:40;23.30;60.90
4425;DHT22;2225;53.568;13.266;2022-07-10T09:54:15;23.30;61.50
4425;DHT22;2225;53.568;13.266;2022-07-10T09:56:44;23.40;59.90
4425;DHT22;2225;53.568;13.266;2022-07-10T09:59:17;23.50;58.90
4425;DHT22;2225;53.568;13.266;2022-07-10T10:01:50;23.50;58.00
4425;DHT22;2225;53.568;13.266;2022-07-10T10:04:20;23.50;58.50
4425;DHT22;2225;53.568;13.266;2022-07-10T10:06:52;23.50;58.70
4425;DHT22;2225;53.568;13.266;2022-07-10T10:09:26;23.40;59.90
4425;DHT22;2225;53.568;13.266;2022-07-10T10:12:04;23.50;59.80
4425;DHT22;2225;53.568;13.266;2022-07-10T10:14:34;23.50;58.50
4425;DHT22;2225;53.568;13.266;2022-07-10T10:17:05;23.40;58.80
4425;DHT22;2225;53.568;13.266;2022-07-10T10:19:33;23.30;58.90
4425;DHT22;2225;53.568;13.266;2022-07-10T10:22:20;23.30;59.40
4425;DHT22;2225;53.568;13.266;2022-07-10T10:24:48;23.30;60.10
4425;DHT22;2225;53.568;13.266;2022-07-10T10:27:15;23.20;60.00
4425;DHT22;2225;53.568;13.266;2022-07-10T10:29:43;23.30;60.50
4425;DHT22;2225;53.568;13.266;2022-07-10T10:32:10;23.30;61.10
4425;DHT22;2225;53.568;13.266;2022-07-10T10:34:44;23.30;61.60
4425;DHT22;2225;53.568;13.266;2022-07-10T10:37:36;23.30;60.90
4425;DHT22;2225;53.568;13.266;2022-07-10T10:40:07;23.30;61.10
4425;DHT22;2225;53.568;13.266;2022-07-10T10:42:38;23.40;61.70
4425;DHT22;2225;53.568;13.266;2022-07-10T10:45:35;23.50;61.10
4425;DHT22;2225;53.568;13.266;2022-07-10T10:48:11;23.60;60.80
4425;DHT22;2225;53.568;13.266;2022-07-10T10:50:59;23.70;59.70
4425;DHT22;2225;53.568;13.266;2022-07-10T10:53:27;23.80;59.50
4425;DHT22;2225;53.568;13.266;2022-07-10T10:58:44;23.90;59.20
4425;DHT22;2225;53.568;13.266;2022-07-10T11:07:01;23.60;58.60
4425;DHT22;2225;53.568;13.266;2022-07-10T11:09:32;23.60;59.10
4425;DHT22;2225;53.568;13.266;2022-07-10T11:12:09;23.50;57.30
4425;DHT22;2225;53.568;13.266;2022-07-10T11:14:46;23.50;57.80
4425;DHT22;2225;53.568;13.266;2022-07-10T11:17:16;23.50;58.30
4425;DHT22;2225;53.568;13.266;2022-07-10T11:19:43;23.50;58.70
4425;DHT22;2225;53.568;13.266;2022-07-10T11:22:46;23.50;59.20
4425;DHT22;2225;53.568;13.266;2022-07-10T11:28:22;23.70;58.30
4425;DHT22;2225;53.568;13.266;2022-07-10T11:30:55;23.60;57.90
4425;DHT22;2225;53.568;13.266;2022-07-10T11:33:22;23.60;57.90
4425;DHT22;2225;53.568;13.266;2022-07-10T11:35:51;23.60;58.20
4425;DHT22;2225;53.568;13.266;2022-07-10T11:38:20;23.60;58.20
4425;DHT22;2225;53.568;13.266;2022-07-10T11:40:48;23.60;57.70
4425;DHT22;2225;53.568;13.266;2022-07-10T11:43:16;23.60;58.40
4425;DHT22;2225;53.568;13.266;2022-07-10T11:45:48;23.70;58.00
4425;DHT22;2225;53.568;13.266;2022-07-10T11:48:22;23.70;57.60
4425;DHT22;2225;53.568;13.266;2022-07-10T11:50:52;23.80;58.20
4425;DHT22;2225;53.568;13.266;2022-07-10T11:53:26;23.90;57.10
4425;DHT22;2225;53.568;13.266;2022-07-10T11:55:53;24.00;56.70
4425;DHT22;2225;53.568;13.266;2022-07-10T11:58:20;24.10;56.40
4425;DHT22;2225;53.568;13.266;2022-07-10T12:01:01;24.20;55.50
4425;DHT22;2225;53.568;13.266;2022-07-10T12:03:32;24.30;55.10
4425;DHT22;2225;53.568;13.266;2022-07-10T12:06:06;24.40;54.60
4425;DHT22;2225;53.568;13.266;2022-07-10T12:08:47;24.40;54.40
4425;DHT22;2225;53.568;13.266;2022-07-10T12:11:18;24.40;53.40
4425;DHT22;2225;53.568;13.266;2022-07-10T12:13:48;24.40;53.90
4425;DHT22;2225;53.568;13.266;2022-07-10T12:16:18;24.40;54.00
4425;DHT22;2225;53.568;13.266;2022-07-10T12:18:46;24.30;54.60
4425;DHT22;2225;53.568;13.266;2022-07-10T12:21:14;24.30;55.70
4425;DHT22;2225;53.568;13.266;2022-07-10T12:23:43;24.20;55.60
4425;DHT22;2225;53.568;13.266;2022-07-10T12:26:11;24.30;56.50
4425;DHT22;2225;53.568;13.266;2022-07-10T12:28:53;24.40;57.30
4425;DHT22;2225;53.568;13.266;2022-07-10T12:31:31;24.40;57.50
4425;DHT22;2225;53.568;13.266;2022-07-10T12:34:04;24.50;56.70
4425;DHT22;2225;53.568;13.266;2022-07-10T12:36:49;24.50;56.60
4425;DHT22;2225;53.568;13.266;2022-07-10T12:39:23;24.60;55.10
4425;DHT22;2225;53.568;13.266;2022-07-10T12:42:00;24.60;55.30
4425;DHT22;2225;53.568;13.266;2022-07-10T12:44:44;24.60;55.20
4425;DHT22;2225;53.568;13.266;2022-07-10T12:47:19;24.60;55.20
4425;DHT22;2225;53.568;13.266;2022-07-10T12:50:04;24.50;53.90
4425;DHT22;2225;53.568;13.266;2022-07-10T12:52:34;24.40;54.20
4425;DHT22;2225;53.568;13.266;2022-07-10T12:55:09;24.40;53.60
4425;DHT22;2225;53.568;13.266;2022-07-10T12:58:03;24.30;53.90
4425;DHT22;2225;53.568;13.266;2022-07-10T13:00:33;24.30;53.90
4425;DHT22;2225;53.568;13.266;2022-07-10T13:03:02;24.30;53.90
4425;DHT22;2225;53.568;13.266;2022-07-10T13:05:39;24.30;53.90
4425;DHT22;2225;53.568;13.266;2022-07-10T13:08:18;24.30;55.00
4425;DHT22;2225;53.568;13.266;2022-07-10T13:10:53;24.40;55.20
4425;DHT22;2225;53.568;13.266;2022-07-10T13:13:24;24.40;55.50
4425;DHT22;2225;53.568;13.266;2022-07-10T13:15:51;24.60;54.50
4425;DHT22;2225;53.568;13.266;2022-07-10T13:18:25;24.70;53.80
4425;DHT22;2225;53.568;13.266;2022-07-10T13:20:55;24.80;53.10
4425;DHT22;2225;53.568;13.266;2022-07-10T13:23:27;24.90;52.70
4425;DHT22;2225;53.568;13.266;2022-07-10T13:25:56;25.00;52.80
4425;DHT22;2225;53.568;13.266;2022-07-10T13:28:23;25.10;53.00
4425;DHT22;2225;53.568;13.266;2022-07-10T13:30:51;25.20;52.90
4425;DHT22;2225;53.568;13.266;2022-07-10T13:33:18;25.30;52.50
4425;DHT22;2225;53.568;13.266;2022-07-10T13:35:45;25.40;52.20
4425;DHT22;2225;53.568;13.266;2022-07-10T13:38:12;25.40;52.20
4425;DHT22;2225;53.568;13.266;2022-07-10T13:40:43;25.40;53.50
4425;DHT22;2225;53.568;13.266;2022-07-10T13:43:12;25.30;53.50
4425;DHT22;2225;53.568;13.266;2022-07-10T13:45:39;25.20;53.30
4425;DHT22;2225;53.568;13.266;2022-07-10T13:48:10;25.10;53.30
4425;DHT22;2225;53.568;13.266;2022-07-10T13:50:42;25.00;53.80
4425;DHT22;2225;53.568;13.266;2022-07-10T13:53:10;24.90;53.70
4425;DHT22;2225;53.568;13.266;2022-07-10T13:55:39;24.80;53.30
4425;DHT22;2225;53.568;13.266;2022-07-10T13:58:06;24.80;53.90
4425;DHT22;2225;53.568;13.266;2022-07-10T14:00:33;24.70;54.10
4425;DHT22;2225;53.568;13.266;2022-07-10T14:03:00;24.70;53.50
4425;DHT22;2225;53.568;13.266;2022-07-10T14:05:27;24.70;53.50
4425;DHT22;2225;53.568;13.266;2022-07-10T14:07:54;24.70;54.10
4425;DHT22;2225;53.568;13.266;2022-07-10T14:10:22;24.70;54.50
4425;DHT22;2225;53.568;13.266;2022-07-10T14:12:49;24.80;54.80
4425;DHT22;2225;53.568;13.266;2022-07-10T14:15:16;24.80;54.40
4425;DHT22;2225;53.568;13.266;2022-07-10T14:17:43;24.80;54.20
4425;DHT22;2225;53.568;13.266;2022-07-10T14:20:11;24.80;53.60
4425;DHT22;2225;53.568;13.266;2022-07-10T14:22:38;24.80;53.60
4425;DHT22;2225;53.568;13.266;2022-07-10T14:25:06;24.80;53.20
4425;DHT22;2225;53.568;13.266;2022-07-10T14:27:35;24.80;53.70
4425;DHT22;2225;53.568;13.266;2022-07-10T14:30:03;24.70;53.50
4425;DHT22;2225;53.568;13.266;2022-07-10T14:32:31;24.80;53.50
4425;DHT22;2225;53.568;13.266;2022-07-10T14:34:58;24.70;53.50
4425;DHT22;2225;53.568;13.266;2022-07-10T14:37:25;24.70;53.00
4425;DHT22;2225;53.568;13.266;2022-07-10T14:39:52;24.70;53.10
4425;DHT22;2225;53.568;13.266;2022-07-10T14:42:19;24.70;52.60
4425;DHT22;2225;53.568;13.266;2022-07-10T14:44:46;24.70;52.80
4425;DHT22;2225;53.568;13.266;2022-07-10T14:47:13;24.70;52.80
4425;DHT22;2225;53.568;13.266;2022-07-10T14:49:41;24.70;51.90
4425;DHT22;2225;53.568;13.266;2022-07-10T14:52:08;24.70;51.50
4425;DHT22;2225;53.568;13.266;2022-07-10T14:54:35;24.70;51.20
4425;DHT22;2225;53.568;13.266;2022-07-10T14:57:02;24.70;51.70
4425;DHT22;2225;53.568;13.266;2022-07-10T14:59:30;24.70;52.40
4425;DHT22;2225;53.568;13.266;2022-07-10T15:01:56;24.70;52.60
4425;DHT22;2225;53.568;13.266;2022-07-10T15:04:24;24.80;52.90
4425;DHT22;2225;53.568;13.266;2022-07-10T15:06:51;24.90;52.00
4425;DHT22;2225;53.568;13.266;2022-07-10T15:09:18;25.00;51.50
4425;DHT22;2225;53.568;13.266;2022-07-10T15:11:45;25.00;50.60
4425;DHT22;2225;53.568;13.266;2022-07-10T15:14:12;25.00;49.80
4425;DHT22;2225;53.568;13.266;2022-07-10T15:16:39;25.00;50.70
4425;DHT22;2225;53.568;13.266;2022-07-10T15:19:06;25.10;50.20
4425;DHT22;2225;53.568;13.266;2022-07-10T15:21:36;25.10;49.80
4425;DHT22;2225;53.568;13.266;2022-07-10T15:24:04;25.10;50.50
4425;DHT22;2225;53.568;13.266;2022-07-10T15:26:31;25.10;50.40
4425;DHT22;2225;53.568;13.266;2022-07-10T15:28:58;25.20;49.90
4425;DHT22;2225;53.568;13.266;2022-07-10T15:31:25;25.20;50.10
4425;DHT22;2225;53.568;13.266;2022-07-10T15:33:53;25.20;50.00
4425;DHT22;2225;53.568;13.266;2022-07-10T15:36:20;25.30;50.30
4425;DHT22;2225;53.568;13.266;2022-07-10T15:38:48;25.30;49.50
4425;DHT22;2225;53.568;13.266;2022-07-10T15:41:15;25.30;48.80
4425;DHT22;2225;53.568;13.266;2022-07-10T15:43:42;25.30;48.50
4425;DHT22;2225;53.568;13.266;2022-07-10T15:46:10;25.30;49.50
4425;DHT22;2225;53.568;13.266;2022-07-10T15:48:40;25.20;49.40
4425;DHT22;2225;53.568;13.266;2022-07-10T15:51:08;25.20;49.40
4425;DHT22;2225;53.568;13.266;2022-07-10T15:53:35;25.10;49.70
4425;DHT22;2225;53.568;13.266;2022-07-10T15:56:03;25.10;49.90
4425;DHT22;2225;53.568;13.266;2022-07-10T15:58:30;25.00;49.40
4425;DHT22;2225;53.568;13.266;2022-07-10T16:00:57;25.00;49.50
4425;DHT22;2225;53.568;13.266;2022-07-10T16:03:24;25.00;49.70
4425;DHT22;2225;53.568;13.266;2022-07-10T16:05:51;25.00;49.70
4425;DHT22;2225;53.568;13.266;2022-07-10T16:08:18;24.90;48.90
4425;DHT22;2225;53.568;13.266;2022-07-10T16:10:48;24.90;49.20
4425;DHT22;2225;53.568;13.266;2022-07-10T16:13:15;24.80;48.30
4425;DHT22;2225;53.568;13.266;2022-07-10T16:15:42;24.80;48.00